Itaueira, Brazil
Current Conditions -  °F | °C
As of 2:00 PM on Tuesday 21 Oct 2014 (Local Time) from SBTE Reporting Station
Clear Clear  
Wind Chill: 93°   Ceiling: Unl
Heat Index: 101°   Visibility: 6mi
Dew Point: 72°   Wind: 8mph
Humidity: 49%   Direction: 210°SSW
Pressure: 29.8"   Gusts: NA
Location:  7.6°S, 43.03°W
Report Text: SBTE 211700Z 21007KT CAVOK 34/22 Q1009
Loading
Personal Weather Stations






























Interactive Weather Map
Tropical Storm Tracking
New forecast layout! Learn more

10-Day Weather Forecast

Advertisements
Track Severe Weather on mobile